createdAt,value
2017-11-03T00:00:31.860Z,11.49
2017-11-03T00:01:31.847Z,11.44
2017-11-03T00:02:31.516Z,11.41
2017-11-03T00:03:32.303Z,11.49
2017-11-03T00:04:32.147Z,11.45
2017-11-03T00:05:31.844Z,11.43
2017-11-03T00:06:31.480Z,11.35
2017-11-03T00:07:31.799Z,11.44
2017-11-03T00:08:32.119Z,11.49
2017-11-03T00:09:31.782Z,11.44
2017-11-03T00:10:31.451Z,11.44
2017-11-03T00:11:32.085Z,11.35
2017-11-03T00:12:31.434Z,11.48
2017-11-03T00:13:31.747Z,11.52
2017-11-03T00:14:31.741Z,11.43
2017-11-03T00:15:32.069Z,11.4
2017-11-03T00:16:32.044Z,11.49
2017-11-03T00:17:31.715Z,11.4
2017-11-03T00:18:32.028Z,11.52
2017-11-03T00:19:31.804Z,11.51
2017-11-03T00:20:31.687Z,11.44
2017-11-03T00:21:32.006Z,11.44
2017-11-03T00:22:31.998Z,11.52
2017-11-03T00:23:31.661Z,11.44
2017-11-03T00:24:31.657Z,11.51
2017-11-03T00:25:31.648Z,11.49
2017-11-03T00:26:31.315Z,11.52
2017-11-03T00:27:31.956Z,11.55
2017-11-03T00:28:31.300Z,11.51
2017-11-03T00:29:31.616Z,11.52
2017-11-03T00:30:31.605Z,11.52
2017-11-03T00:31:31.599Z,11.49
2017-11-03T00:32:31.602Z,11.4
2017-11-03T00:33:31.907Z,11.51
2017-11-03T00:34:31.893Z,11.48
2017-11-03T00:35:31.240Z,11.49
2017-11-03T00:36:31.878Z,11.44
2017-11-03T00:37:31.875Z,11.51
2017-11-03T00:38:31.551Z,11.49
2017-11-03T00:39:31.547Z,11.49
2017-11-03T00:40:31.524Z,11.45
2017-11-03T00:41:31.518Z,11.52
2017-11-03T00:42:31.512Z,11.38
2017-11-03T00:43:31.499Z,11.48
2017-11-03T00:44:31.488Z,11.43
2017-11-03T00:45:31.809Z,11.41
2017-11-03T00:46:31.479Z,11.45
2017-11-03T00:47:31.142Z,11.45
2017-11-03T00:48:31.455Z,11.53
2017-11-03T00:49:31.276Z,11.52
2017-11-03T00:50:31.118Z,11.52
2017-11-03T00:51:31.431Z,11.56
2017-11-03T00:52:31.422Z,11.52
2017-11-03T00:53:31.091Z,11.49
2017-11-03T00:54:31.405Z,11.48
2017-11-03T00:55:31.073Z,11.4
2017-11-03T00:56:31.396Z,11.41
2017-11-03T00:57:31.384Z,11.45
2017-11-03T00:58:31.371Z,11.41
2017-11-03T00:59:31.687Z,11.4
2017-11-03T01:00:31.355Z,11.4
2017-11-03T01:01:31.025Z,11.4
2017-11-03T01:02:31.016Z,11.44
2017-11-03T01:03:31.657Z,11.34
2017-11-03T01:04:31.323Z,11.4
2017-11-03T01:05:30.991Z,11.3
2017-11-03T01:06:31.305Z,11.31
2017-11-03T01:07:31.074Z,11.34
2017-11-03T01:08:31.611Z,11.44
2017-11-03T01:09:30.955Z,11.45
2017-11-03T01:10:31.596Z,11.4
2017-11-03T01:11:31.091Z,11.35
2017-11-03T01:12:30.940Z,11.44
2017-11-03T01:13:31.573Z,11.34
2017-11-03T01:14:31.561Z,11.38
2017-11-03T01:15:31.558Z,11.43
2017-11-03T01:16:31.547Z,11.43
2017-11-03T01:17:31.365Z,11.37
2017-11-03T01:18:31.545Z,11.43
2017-11-03T01:19:30.874Z,11.41
2017-11-03T01:20:30.868Z,11.44
2017-11-03T01:21:31.180Z,11.38
2017-11-03T01:22:31.273Z,11.49
2017-11-03T01:23:31.494Z,11.43
2017-11-03T01:24:31.153Z,11.45
2017-11-03T01:25:31.473Z,11.38
2017-11-03T01:26:31.467Z,11.34
2017-11-03T01:27:30.811Z,11.34
2017-11-03T01:28:31.446Z,11.3
2017-11-03T01:29:30.791Z,11.3
2017-11-03T01:30:31.430Z,11.31
2017-11-03T01:31:31.423Z,11.34
2017-11-03T01:32:30.768Z,11.34
2017-11-03T01:33:30.756Z,11.3
2017-11-03T01:34:31.395Z,11.37
2017-11-03T01:35:31.062Z,11.3
2017-11-03T01:36:31.058Z,11.3
2017-11-03T01:37:31.148Z,11.3
2017-11-03T01:38:31.374Z,11.27
2017-11-03T01:39:31.505Z,11.27
2017-11-03T01:40:31.351Z,11.34
2017-11-03T01:41:31.020Z,11.31
2017-11-03T01:42:31.011Z,11.34
2017-11-03T01:43:31.328Z,11.34
2017-11-03T01:44:30.994Z,11.4
2017-11-03T01:45:30.981Z,11.41
2017-11-03T01:46:30.973Z,11.37
2017-11-03T01:47:31.079Z,11.37
2017-11-03T01:48:30.639Z,11.4
2017-11-03T01:49:30.950Z,11.41
2017-11-03T01:50:30.621Z,11.4
2017-11-03T01:51:31.266Z,11.38
2017-11-03T01:52:31.347Z,11.43
2017-11-03T01:53:30.916Z,11.43
2017-11-03T01:54:31.008Z,11.38
2017-11-03T01:55:30.899Z,11.4
2017-11-03T01:56:30.890Z,11.43
2017-11-03T01:57:30.979Z,11.49
2017-11-03T01:58:30.874Z,11.4
2017-11-03T01:59:30.542Z,11.41
2017-11-03T02:00:31.188Z,11.41
2017-11-03T02:01:31.189Z,11.41
2017-11-03T02:02:31.178Z,11.51
2017-11-03T02:03:30.511Z,11.37
2017-11-03T02:04:30.925Z,11.45
2017-11-03T02:05:30.492Z,11.4
2017-11-03T02:06:30.812Z,11.43
2017-11-03T02:07:30.475Z,11.35
2017-11-03T02:08:30.790Z,11.41
2017-11-03T02:09:30.786Z,11.4
2017-11-03T02:10:30.872Z,11.4
2017-11-03T02:11:30.445Z,11.45
2017-11-03T02:12:30.756Z,11.44
2017-11-03T02:13:30.750Z,11.41
2017-11-03T02:14:30.418Z,11.43
2017-11-03T02:15:30.734Z,11.38
2017-11-03T02:16:30.724Z,11.35
2017-11-03T02:17:30.717Z,11.43
2017-11-03T02:18:30.706Z,11.38
2017-11-03T02:19:31.023Z,11.4
2017-11-03T02:20:31.116Z,11.38
2017-11-03T02:21:30.358Z,11.48
2017-11-03T02:22:30.678Z,11.37
2017-11-03T02:23:30.344Z,11.37
2017-11-03T02:24:30.659Z,11.35
2017-11-03T02:25:30.974Z,11.37
2017-11-03T02:26:30.316Z,11.34
2017-11-03T02:27:30.631Z,11.33
2017-11-03T02:28:30.628Z,11.37
2017-11-03T02:29:30.617Z,11.35
2017-11-03T02:30:30.282Z,11.4
2017-11-03T02:31:30.604Z,11.38
2017-11-03T02:32:30.593Z,11.41
2017-11-03T02:33:30.905Z,11.34
2017-11-03T02:34:30.578Z,11.48
2017-11-03T02:35:30.241Z,11.35
2017-11-03T02:36:30.887Z,11.44
2017-11-03T02:37:30.225Z,11.41
2017-11-03T02:38:30.215Z,11.49
2017-11-03T02:39:30.862Z,11.34
2017-11-03T02:40:30.946Z,11.34
2017-11-03T02:41:30.835Z,11.35
2017-11-03T02:42:30.509Z,11.4
2017-11-03T02:43:30.599Z,11.35
2017-11-03T02:44:30.829Z,11.34
2017-11-03T02:45:30.483Z,11.34
2017-11-03T02:46:30.814Z,11.37
2017-11-03T02:47:30.144Z,11.37
2017-11-03T02:48:30.785Z,11.34
2017-11-03T02:49:30.128Z,11.34
2017-11-03T02:50:30.589Z,11.37
2017-11-03T02:51:30.109Z,11.38
2017-11-03T02:52:30.751Z,11.34
2017-11-03T02:53:30.741Z,11.35
2017-11-03T02:54:30.770Z,11.33
2017-11-03T02:55:30.731Z,11.37
2017-11-03T02:56:30.395Z,11.34
2017-11-03T02:57:30.708Z,11.33
2017-11-03T02:58:30.696Z,11.37
2017-11-03T02:59:30.795Z,11.31
2017-11-03T03:00:30.687Z,11.3
2017-11-03T03:01:30.349Z,11.34
2017-11-03T03:02:30.348Z,11.34
2017-11-03T03:03:30.348Z,11.27
2017-11-03T03:04:30.324Z,11.35
2017-11-03T03:05:30.319Z,11.34
2017-11-03T03:06:30.312Z,11.3
2017-11-03T03:07:30.659Z,11.34
2017-11-03T03:08:30.617Z,11.26
2017-11-03T03:09:29.962Z,11.25
2017-11-03T03:10:30.275Z,11.3
2017-11-03T03:11:30.264Z,11.22
2017-11-03T03:12:30.258Z,11.19
2017-11-03T03:13:30.251Z,11.23
2017-11-03T03:14:30.567Z,11.2
2017-11-03T03:15:30.236Z,11.25
2017-11-03T03:16:30.552Z,11.31
2017-11-03T03:17:30.219Z,11.25
2017-11-03T03:18:30.214Z,11.2
2017-11-03T03:19:30.198Z,11.26
2017-11-03T03:20:30.197Z,11.25
2017-11-03T03:21:30.217Z,11.23
2017-11-03T03:22:30.498Z,11.3
2017-11-03T03:23:30.164Z,11.19
2017-11-03T03:24:30.169Z,11.2
2017-11-03T03:25:30.151Z,11.26
2017-11-03T03:26:30.144Z,11.18
2017-11-03T03:27:30.141Z,11.27
2017-11-03T03:28:29.802Z,11.2
2017-11-03T03:29:30.120Z,11.19
2017-11-03T03:30:30.116Z,11.2
2017-11-03T03:31:30.104Z,11.27
2017-11-03T03:32:30.414Z,11.2
2017-11-03T03:33:30.089Z,11.26
2017-11-03T03:34:30.077Z,11.22
2017-11-03T03:35:30.396Z,11.2
2017-11-03T03:36:30.062Z,11.18
2017-11-03T03:37:30.475Z,11.2
2017-11-03T03:38:30.382Z,11.26
2017-11-03T03:39:30.362Z,11.2
2017-11-03T03:40:29.701Z,11.23
2017-11-03T03:41:30.020Z,11.26
2017-11-03T03:42:30.334Z,11.23
2017-11-03T03:43:30.012Z,11.26
2017-11-03T03:44:29.994Z,11.23
2017-11-03T03:45:29.663Z,11.2
2017-11-03T03:46:29.977Z,11.31
2017-11-03T03:47:29.967Z,11.2
2017-11-03T03:48:29.964Z,11.22
2017-11-03T03:49:30.276Z,11.27
2017-11-03T03:50:29.722Z,11.23
2017-11-03T03:51:29.938Z,11.26
2017-11-03T03:52:29.930Z,11.23
2017-11-03T03:53:29.596Z,11.25
2017-11-03T03:54:30.234Z,11.25
2017-11-03T03:55:29.902Z,11.3
2017-11-03T03:56:30.218Z,11.2
2017-11-03T03:57:29.561Z,11.22
2017-11-03T03:58:29.554Z,11.19
2017-11-03T03:59:30.195Z,11.16
2017-11-03T04:00:29.537Z,11.16
2017-11-03T04:01:30.177Z,11.1
2017-11-03T04:02:30.164Z,11.13
2017-11-03T04:03:29.838Z,11.08
2017-11-03T04:04:30.156Z,11.18
2017-11-03T04:05:29.493Z,11.1
2017-11-03T04:06:30.137Z,11.15
2017-11-03T04:07:29.478Z,11.13
2017-11-03T04:08:29.469Z,11.15
2017-11-03T04:09:29.470Z,11.13
2017-11-03T04:10:29.779Z,11.12
2017-11-03T04:11:30.101Z,11.16
2017-11-03T04:12:29.762Z,11.05
2017-11-03T04:13:29.750Z,11.07
2017-11-03T04:14:29.842Z,11.08
2017-11-03T04:15:29.739Z,11.07
2017-11-03T04:16:29.826Z,11.02
2017-11-03T04:17:29.394Z,11.04
2017-11-03T04:18:29.711Z,11.04
2017-11-03T04:19:29.704Z,11.04
2017-11-03T04:20:29.692Z,11.01
2017-11-03T04:21:29.683Z,11
2017-11-03T04:22:29.354Z,11.02
2017-11-03T04:23:30.000Z,11.05
2017-11-03T04:24:29.760Z,10.98
2017-11-03T04:25:29.657Z,11
2017-11-03T04:26:29.972Z,11.02
2017-11-03T04:27:29.633Z,11.07
2017-11-03T04:28:29.626Z,11.02
2017-11-03T04:29:29.948Z,11.07
2017-11-03T04:30:29.617Z,11.04
2017-11-03T04:31:29.278Z,11.07
2017-11-03T04:32:29.694Z,11.07
2017-11-03T04:33:29.917Z,11.08
2017-11-03T04:34:29.896Z,11.04
2017-11-03T04:35:29.244Z,11.04
2017-11-03T04:36:29.561Z,10.98
2017-11-03T04:37:29.228Z,11.12
2017-11-03T04:38:29.547Z,11.15
2017-11-03T04:39:29.537Z,11.08
2017-11-03T04:40:29.206Z,11.1
2017-11-03T04:41:29.528Z,11.16
2017-11-03T04:42:29.523Z,11.15
2017-11-03T04:43:29.180Z,11.16
2017-11-03T04:44:29.504Z,11.12
2017-11-03T04:45:29.261Z,11.05
2017-11-03T04:46:29.801Z,11.12
2017-11-03T04:47:29.470Z,11.15
2017-11-03T04:48:29.789Z,11.19
2017-11-03T04:49:29.778Z,11.1
2017-11-03T04:50:29.542Z,11.13
2017-11-03T04:51:29.445Z,11.05
2017-11-03T04:52:29.758Z,11.13
2017-11-03T04:53:29.096Z,11.05
2017-11-03T04:54:29.735Z,11.13
2017-11-03T04:55:29.079Z,11.1
2017-11-03T04:56:29.398Z,11.18
2017-11-03T04:57:29.412Z,11.16
2017-11-03T04:58:29.390Z,11.18
2017-11-03T04:59:29.368Z,11.13
2017-11-03T05:00:29.358Z,11.18
2017-11-03T05:01:29.352Z,11.16
2017-11-03T05:02:29.345Z,11.1
2017-11-03T05:03:29.336Z,11.04
2017-11-03T05:04:29.331Z,11.15
2017-11-03T05:05:28.996Z,11.15
2017-11-03T05:06:29.308Z,11.05
2017-11-03T05:07:29.303Z,11.1
2017-11-03T05:08:29.303Z,11.01
2017-11-03T05:09:29.286Z,11.04
2017-11-03T05:10:28.954Z,11.05
2017-11-03T05:11:29.268Z,11.05
2017-11-03T05:12:29.582Z,11.02
2017-11-03T05:13:29.509Z,11.04
2017-11-03T05:14:29.244Z,11.04
2017-11-03T05:15:28.911Z,11.04
2017-11-03T05:16:29.242Z,11.04
2017-11-03T05:17:28.897Z,11.08
2017-11-03T05:18:28.889Z,11.04
2017-11-03T05:19:28.880Z,11.04
2017-11-03T05:20:28.868Z,11.07
2017-11-03T05:21:28.863Z,11.07
2017-11-03T05:22:29.183Z,10.97
2017-11-03T05:23:29.172Z,11.04
2017-11-03T05:24:29.162Z,11.1
2017-11-03T05:25:29.479Z,10.97
2017-11-03T05:26:29.147Z,11.01
2017-11-03T05:27:29.473Z,10.94
2017-11-03T05:28:29.128Z,10.95
2017-11-03T05:29:29.119Z,10.95
2017-11-03T05:30:29.110Z,10.92
2017-11-03T05:31:29.106Z,10.98
2017-11-03T05:32:29.426Z,10.89
2017-11-03T05:33:29.085Z,10.94
2017-11-03T05:34:29.410Z,10.79
2017-11-03T05:35:29.074Z,10.9
2017-11-03T05:36:29.064Z,10.79
2017-11-03T05:37:29.379Z,10.83
2017-11-03T05:38:29.373Z,10.89
2017-11-03T05:39:29.034Z,10.89
2017-11-03T05:40:29.030Z,10.87
2017-11-03T05:41:29.346Z,10.87
2017-11-03T05:42:29.342Z,10.82
2017-11-03T05:43:29.329Z,10.87
2017-11-03T05:44:28.995Z,10.86
2017-11-03T05:45:29.317Z,10.84
2017-11-03T05:46:28.976Z,10.83
2017-11-03T05:47:28.651Z,10.86
2017-11-03T05:48:28.968Z,10.9
2017-11-03T05:49:29.280Z,10.75
2017-11-03T05:50:28.942Z,10.9
2017-11-03T05:51:28.615Z,10.8
2017-11-03T05:52:29.347Z,10.8
2017-11-03T05:53:28.926Z,10.77
2017-11-03T05:54:28.915Z,10.82
2017-11-03T05:55:28.579Z,10.82
2017-11-03T05:56:29.321Z,10.83
2017-11-03T05:57:28.885Z,10.8
2017-11-03T05:58:28.555Z,10.71
2017-11-03T05:59:28.870Z,10.71
2017-11-03T06:00:28.854Z,10.71
2017-11-03T06:01:28.843Z,10.71
2017-11-03T06:02:29.169Z,10.64
2017-11-03T06:03:29.156Z,10.65
2017-11-03T06:04:28.820Z,10.67
2017-11-03T06:05:28.491Z,10.64
2017-11-03T06:06:28.484Z,10.65
2017-11-03T06:07:28.475Z,10.69
2017-11-03T06:08:28.787Z,10.65
2017-11-03T06:09:29.103Z,10.58
2017-11-03T06:10:28.448Z,10.62
2017-11-03T06:11:28.442Z,10.49
2017-11-03T06:12:28.755Z,10.59
2017-11-03T06:13:28.748Z,10.58
2017-11-03T06:14:29.061Z,10.58
2017-11-03T06:15:28.731Z,10.61
2017-11-03T06:16:28.400Z,10.49
2017-11-03T06:17:28.709Z,10.59
2017-11-03T06:18:29.024Z,10.58
2017-11-03T06:19:29.016Z,10.48
2017-11-03T06:20:28.366Z,10.58
2017-11-03T06:21:28.357Z,10.58
2017-11-03T06:22:28.350Z,10.61
2017-11-03T06:23:28.770Z,10.49
2017-11-03T06:24:28.980Z,10.53
2017-11-03T06:25:28.654Z,10.61
2017-11-03T06:26:28.639Z,10.57
2017-11-03T06:27:28.629Z,10.51
2017-11-03T06:28:28.622Z,10.46
2017-11-03T06:29:28.618Z,10.55
2017-11-03T06:30:28.283Z,10.55
2017-11-03T06:31:28.596Z,10.55
2017-11-03T06:32:28.908Z,10.43
2017-11-03T06:33:28.588Z,10.41
2017-11-03T06:34:28.573Z,10.43
2017-11-03T06:35:28.885Z,10.48
2017-11-03T06:36:28.557Z,10.48
2017-11-03T06:37:28.869Z,10.42
2017-11-03T06:38:30.214Z,10.36
2017-11-03T06:39:28.855Z,10.46
2017-11-03T06:40:28.520Z,10.49
2017-11-03T06:41:28.515Z,10.38
2017-11-03T06:42:28.194Z,10.38
2017-11-03T06:43:28.174Z,10.46
2017-11-03T06:44:28.936Z,10.33
2017-11-03T06:45:28.799Z,10.34
2017-11-03T06:46:28.149Z,10.33
2017-11-03T06:47:28.462Z,10.38
2017-11-03T06:48:28.785Z,10.33
2017-11-03T06:49:28.444Z,10.41
2017-11-03T06:50:28.440Z,10.38
2017-11-03T06:51:28.751Z,10.31
2017-11-03T06:52:28.419Z,10.34
2017-11-03T06:53:28.410Z,10.38
2017-11-03T06:54:28.726Z,10.39
2017-11-03T06:55:28.073Z,10.42
2017-11-03T06:56:28.709Z,10.46
2017-11-03T06:57:28.703Z,10.38
2017-11-03T06:58:28.467Z,10.41
2017-11-03T06:59:28.038Z,10.34
2017-11-03T07:00:28.677Z,10.36
2017-11-03T07:01:28.350Z,10.45
2017-11-03T07:02:28.669Z,10.38
2017-11-03T07:03:28.648Z,10.31
2017-11-03T07:04:28.326Z,10.45
2017-11-03T07:05:28.320Z,10.38
2017-11-03T07:06:28.739Z,10.31
2017-11-03T07:07:27.974Z,10.46
2017-11-03T07:08:28.297Z,10.33
2017-11-03T07:09:28.297Z,10.34
2017-11-03T07:10:28.272Z,10.36
2017-11-03T07:11:28.587Z,10.38
2017-11-03T07:12:28.257Z,10.34
2017-11-03T07:13:28.243Z,10.38
2017-11-03T07:14:28.560Z,10.41
2017-11-03T07:15:28.336Z,10.45
2017-11-03T07:16:28.220Z,10.39
2017-11-03T07:17:28.214Z,10.43
2017-11-03T07:18:28.218Z,10.45
2017-11-03T07:19:28.513Z,10.48
2017-11-03T07:20:28.188Z,10.43
2017-11-03T07:21:28.181Z,10.39
2017-11-03T07:22:28.492Z,10.45
2017-11-03T07:23:28.159Z,10.46
2017-11-03T07:24:28.156Z,10.38
2017-11-03T07:25:28.471Z,10.53
2017-11-03T07:26:28.143Z,10.61
2017-11-03T07:27:27.808Z,10.59
2017-11-03T07:28:28.126Z,10.59
2017-11-03T07:29:27.945Z,10.55
2017-11-03T07:30:28.110Z,10.55
2017-11-03T07:31:28.101Z,10.55
2017-11-03T07:32:28.090Z,10.61
2017-11-03T07:33:28.083Z,10.51
2017-11-03T07:34:28.092Z,10.67
2017-11-03T07:35:28.401Z,10.68
2017-11-03T07:36:27.738Z,10.65
2017-11-03T07:37:28.375Z,10.68
2017-11-03T07:38:28.370Z,10.77
2017-11-03T07:39:28.355Z,10.72
2017-11-03T07:40:28.131Z,10.82
2017-11-03T07:41:27.693Z,10.79
2017-11-03T07:42:28.466Z,10.87
2017-11-03T07:43:28.007Z,10.87
2017-11-03T07:44:27.670Z,10.8
2017-11-03T07:45:27.984Z,10.86
2017-11-03T07:46:27.975Z,10.87
2017-11-03T07:47:27.646Z,10.94
2017-11-03T07:48:27.961Z,10.98
2017-11-03T07:49:28.270Z,10.89
2017-11-03T07:50:28.377Z,10.98
2017-11-03T07:51:28.258Z,11
2017-11-03T07:52:27.604Z,11.01
2017-11-03T07:53:27.920Z,11.05
2017-11-03T07:54:28.233Z,11.13
2017-11-03T07:55:27.575Z,11.13
2017-11-03T07:56:28.216Z,11.18
2017-11-03T07:57:27.890Z,11.07
2017-11-03T07:58:27.879Z,11.1
2017-11-03T07:59:27.873Z,11.12
2017-11-03T08:00:27.857Z,11.19
2017-11-03T08:01:28.175Z,11.23
2017-11-03T08:02:27.845Z,11.19
2017-11-03T08:03:28.167Z,11.22
2017-11-03T08:04:27.828Z,11.31
2017-11-03T08:05:27.825Z,11.27
2017-11-03T08:06:27.808Z,11.33
2017-11-03T08:07:27.805Z,11.35
2017-11-03T08:08:27.795Z,11.31
2017-11-03T08:09:27.785Z,11.34
2017-11-03T08:10:27.776Z,11.34
2017-11-03T08:11:27.445Z,11.35
2017-11-03T08:12:27.440Z,11.44
2017-11-03T08:13:28.075Z,11.35
2017-11-03T08:14:27.422Z,11.51
2017-11-03T08:15:28.062Z,11.53
2017-11-03T08:16:27.727Z,11.56
2017-11-03T08:17:27.822Z,11.56
2017-11-03T08:18:27.711Z,11.58
2017-11-03T08:19:27.707Z,11.58
2017-11-03T08:20:27.372Z,11.6
2017-11-03T08:21:27.365Z,11.58
2017-11-03T08:22:27.354Z,11.6
2017-11-03T08:23:27.825Z,11.62
2017-11-03T08:24:27.665Z,11.6
2017-11-03T08:25:27.977Z,11.67
2017-11-03T08:26:27.976Z,11.77
2017-11-03T08:27:27.641Z,11.7
2017-11-03T08:28:27.951Z,11.76
2017-11-03T08:29:27.623Z,11.76
2017-11-03T08:30:27.293Z,11.77
2017-11-03T08:31:27.606Z,11.83
2017-11-03T08:32:27.597Z,11.81
2017-11-03T08:33:27.264Z,11.86
2017-11-03T08:34:27.583Z,11.89
2017-11-03T08:35:27.904Z,11.97
2017-11-03T08:36:27.566Z,11.93
2017-11-03T08:37:27.561Z,11.99
2017-11-03T08:38:27.873Z,11.97
2017-11-03T08:39:27.544Z,12.11
2017-11-03T08:40:27.534Z,12
2017-11-03T08:41:27.532Z,12.07
2017-11-03T08:42:27.875Z,12.11
2017-11-03T08:43:27.838Z,12.14
2017-11-03T08:44:27.531Z,12.11
2017-11-03T08:45:27.492Z,12.18
2017-11-03T08:46:27.159Z,12.2
2017-11-03T08:47:27.475Z,12.15
2017-11-03T08:48:27.467Z,12.12
2017-11-03T08:49:27.136Z,12.23
2017-11-03T08:50:27.451Z,12.21
2017-11-03T08:51:27.119Z,12.18
2017-11-03T08:52:27.438Z,12.25
2017-11-03T08:53:27.430Z,12.28
2017-11-03T08:54:27.420Z,12.35
2017-11-03T08:55:27.421Z,12.33
2017-11-03T08:56:27.402Z,12.28
2017-11-03T08:57:27.070Z,12.43
2017-11-03T08:58:27.064Z,12.32
2017-11-03T08:59:27.378Z,12.36
2017-11-03T09:00:27.370Z,12.39
2017-11-03T09:01:27.046Z,12.47
2017-11-03T09:02:27.680Z,12.43
2017-11-03T09:03:27.024Z,12.44
2017-11-03T09:04:27.338Z,12.5
2017-11-03T09:05:27.005Z,12.51
2017-11-03T09:06:27.323Z,12.5
2017-11-03T09:07:26.989Z,12.57
2017-11-03T09:08:27.305Z,12.55
2017-11-03T09:09:26.975Z,12.53
2017-11-03T09:10:26.967Z,12.51
2017-11-03T09:11:27.281Z,12.61
2017-11-03T09:12:26.950Z,12.72
2017-11-03T09:13:27.272Z,12.7
2017-11-03T09:14:27.258Z,12.73
2017-11-03T09:15:27.251Z,12.75
2017-11-03T09:16:27.245Z,12.69
2017-11-03T09:17:27.234Z,12.72
2017-11-03T09:18:27.226Z,12.69
2017-11-03T09:19:26.896Z,12.73
2017-11-03T09:20:27.212Z,12.75
2017-11-03T09:21:27.221Z,12.8
2017-11-03T09:22:26.871Z,12.81
2017-11-03T09:23:27.187Z,12.83
2017-11-03T09:24:27.177Z,12.86
2017-11-03T09:25:27.276Z,12.91
2017-11-03T09:26:27.163Z,12.9
2017-11-03T09:27:26.831Z,12.94
2017-11-03T09:28:26.923Z,12.9
2017-11-03T09:29:27.139Z,12.95
2017-11-03T09:30:26.812Z,13.01
2017-11-03T09:31:27.124Z,13.06
2017-11-03T09:32:27.116Z,13.12
2017-11-03T09:33:27.107Z,13.26
2017-11-03T09:34:27.426Z,13.2
2017-11-03T09:35:27.425Z,13.2
2017-11-03T09:36:27.408Z,13.21
2017-11-03T09:37:27.075Z,13.3
2017-11-03T09:38:27.399Z,13.36
2017-11-03T09:39:27.385Z,13.3
2017-11-03T09:40:27.053Z,13.33
2017-11-03T09:41:27.047Z,13.36
2017-11-03T09:42:27.383Z,13.4
2017-11-03T09:43:27.029Z,13.45
2017-11-03T09:44:27.026Z,13.49
2017-11-03T09:45:27.340Z,13.46
2017-11-03T09:46:26.683Z,13.45
2017-11-03T09:47:27.000Z,13.57
2017-11-03T09:48:27.314Z,13.5
2017-11-03T09:49:27.083Z,13.6
2017-11-03T09:50:26.974Z,13.64
2017-11-03T09:51:26.974Z,13.62
2017-11-03T09:52:26.961Z,13.7
2017-11-03T09:53:26.963Z,13.67
2017-11-03T09:54:26.956Z,13.78
2017-11-03T09:55:26.939Z,13.8
2017-11-03T09:56:26.606Z,13.83
2017-11-03T09:57:26.597Z,14.03
2017-11-03T09:58:26.591Z,14.07
2017-11-03T09:59:26.583Z,14.13
2017-11-03T10:00:26.900Z,14.18
2017-11-03T10:01:27.217Z,14.3
2017-11-03T10:02:26.884Z,14.3
2017-11-03T10:03:26.552Z,14.34
2017-11-03T10:04:26.872Z,14.38
2017-11-03T10:05:26.859Z,14.36
2017-11-03T10:06:26.852Z,14.34
2017-11-03T10:07:26.845Z,14.41
2017-11-03T10:08:27.190Z,14.44
2017-11-03T10:09:26.829Z,14.45
2017-11-03T10:10:26.823Z,14.49
2017-11-03T10:11:27.144Z,14.45
2017-11-03T10:12:26.483Z,14.51
2017-11-03T10:13:26.480Z,14.53
2017-11-03T10:14:27.122Z,14.52
2017-11-03T10:15:27.119Z,14.51
2017-11-03T10:16:27.100Z,14.59
2017-11-03T10:17:27.102Z,14.52
2017-11-03T10:18:26.757Z,14.52
2017-11-03T10:19:26.754Z,14.55
2017-11-03T10:20:26.846Z,14.45
2017-11-03T10:21:26.736Z,14.37
2017-11-03T10:22:26.729Z,14.36
2017-11-03T10:23:26.824Z,14.3
2017-11-03T10:24:26.716Z,14.3
2017-11-03T10:25:26.703Z,14.25
2017-11-03T10:26:26.473Z,14.26
2017-11-03T10:27:27.025Z,14.19
2017-11-03T10:28:26.685Z,14.23
2017-11-03T10:29:26.681Z,14.25
2017-11-03T10:30:26.993Z,14.25
2017-11-03T10:31:26.661Z,14.28
2017-11-03T10:32:26.329Z,14.26
2017-11-03T10:33:26.785Z,14.25
2017-11-03T10:34:26.962Z,14.36
2017-11-03T10:35:26.638Z,14.36
2017-11-03T10:36:26.621Z,14.38
2017-11-03T10:37:26.290Z,14.38
2017-11-03T10:38:26.931Z,14.36
2017-11-03T10:39:26.276Z,14.4
2017-11-03T10:40:26.269Z,14.33
2017-11-03T10:41:26.360Z,14.38
2017-11-03T10:42:26.583Z,14.38
2017-11-03T10:43:26.571Z,14.43
2017-11-03T10:44:26.581Z,14.51
2017-11-03T10:45:26.555Z,14.52
2017-11-03T10:46:26.547Z,14.52
2017-11-03T10:47:26.538Z,14.52
2017-11-03T10:48:26.634Z,14.58
2017-11-03T10:49:26.201Z,14.53
2017-11-03T10:50:26.530Z,14.59
2017-11-03T10:51:26.610Z,14.58
2017-11-03T10:52:26.184Z,14.62
2017-11-03T10:53:26.172Z,14.66
2017-11-03T10:54:26.490Z,14.55
2017-11-03T10:55:26.479Z,14.44
2017-11-03T10:56:26.475Z,14.51
2017-11-03T10:57:26.141Z,14.41
2017-11-03T10:58:26.454Z,14.38
2017-11-03T10:59:26.449Z,14.43
2017-11-03T11:00:26.770Z,14.37
2017-11-03T11:01:26.757Z,14.25
2017-11-03T11:02:26.903Z,14.33
2017-11-03T11:03:26.419Z,14.36
2017-11-03T11:04:26.411Z,14.26
2017-11-03T11:05:26.402Z,14.23
2017-11-03T11:06:26.069Z,14.36
2017-11-03T11:07:26.386Z,14.33
2017-11-03T11:08:26.388Z,14.36
2017-11-03T11:09:26.370Z,14.36
2017-11-03T11:10:26.368Z,14.34
2017-11-03T11:11:26.035Z,14.37
2017-11-03T11:12:26.350Z,14.51
2017-11-03T11:13:26.677Z,14.55
2017-11-03T11:14:26.333Z,14.49
2017-11-03T11:15:26.434Z,14.56
2017-11-03T11:16:26.325Z,14.7
2017-11-03T11:17:25.987Z,14.74
2017-11-03T11:18:26.287Z,14.74
2017-11-03T11:19:26.620Z,14.86
2017-11-03T11:20:26.287Z,14.82
2017-11-03T11:21:26.282Z,14.92
2017-11-03T11:22:26.272Z,14.89
2017-11-03T11:23:26.595Z,14.86
2017-11-03T11:24:26.258Z,14.93
2017-11-03T11:25:26.255Z,14.79
2017-11-03T11:26:26.574Z,14.79
2017-11-03T11:27:26.559Z,14.78
2017-11-03T11:28:26.228Z,14.68
2017-11-03T11:29:26.543Z,14.71
2017-11-03T11:30:25.888Z,14.73
2017-11-03T11:31:26.529Z,14.67
2017-11-03T11:32:26.203Z,14.7
2017-11-03T11:33:26.515Z,14.73
2017-11-03T11:34:26.509Z,14.74
2017-11-03T11:35:26.183Z,14.7
2017-11-03T11:36:26.270Z,14.67
2017-11-03T11:37:25.836Z,14.63
2017-11-03T11:38:26.153Z,14.68
2017-11-03T11:39:26.146Z,14.7
2017-11-03T11:40:26.469Z,14.74
2017-11-03T11:41:26.140Z,14.68
2017-11-03T11:42:26.457Z,14.73
2017-11-03T11:43:26.113Z,14.7
2017-11-03T11:44:26.430Z,14.87
2017-11-03T11:45:26.437Z,14.81
2017-11-03T11:46:26.202Z,14.93
2017-11-03T11:47:25.762Z,14.89
2017-11-03T11:48:26.405Z,14.93
2017-11-03T11:49:26.073Z,15.02
2017-11-03T11:50:26.389Z,14.99
2017-11-03T11:51:26.256Z,15.04
2017-11-03T11:52:26.049Z,15.05
2017-11-03T11:53:25.718Z,15.12
2017-11-03T11:54:26.035Z,15.1
2017-11-03T11:55:26.497Z,15.14
2017-11-03T11:56:26.023Z,15.12
2017-11-03T11:57:25.686Z,15.18
2017-11-03T11:58:26.003Z,15.08
2017-11-03T11:59:25.996Z,15.15
2017-11-03T12:00:26.308Z,15.18
2017-11-03T12:01:26.306Z,15.19
2017-11-03T12:02:26.297Z,15.26
2017-11-03T12:03:25.959Z,15.25
2017-11-03T12:04:25.959Z,15.27
2017-11-03T12:05:26.278Z,15.33
2017-11-03T12:06:26.262Z,15.27
2017-11-03T12:07:25.610Z,15.26
2017-11-03T12:08:25.930Z,15.35
2017-11-03T12:09:25.594Z,15.39
2017-11-03T12:10:26.235Z,15.43
2017-11-03T12:11:25.906Z,15.43
2017-11-03T12:12:25.894Z,15.41
2017-11-03T12:13:25.564Z,15.39
2017-11-03T12:14:26.210Z,15.45
2017-11-03T12:15:25.875Z,15.45
2017-11-03T12:16:25.545Z,15.45
2017-11-03T12:17:26.188Z,15.48
2017-11-03T12:18:25.849Z,15.52
2017-11-03T12:19:26.170Z,15.45
2017-11-03T12:20:26.159Z,15.55
2017-11-03T12:21:25.829Z,15.45
2017-11-03T12:22:25.821Z,15.5
2017-11-03T12:23:25.490Z,15.54
2017-11-03T12:24:25.807Z,15.54
2017-11-03T12:25:25.800Z,15.47
2017-11-03T12:26:25.792Z,15.55
2017-11-03T12:27:25.783Z,15.51
2017-11-03T12:28:25.789Z,15.57
2017-11-03T12:29:25.544Z,15.54
2017-11-03T12:30:26.096Z,15.54
2017-11-03T12:31:25.429Z,15.63
2017-11-03T12:32:25.424Z,15.65
2017-11-03T12:33:25.737Z,15.59
2017-11-03T12:34:25.728Z,15.62
2017-11-03T12:35:26.055Z,15.76
2017-11-03T12:36:25.393Z,15.62
2017-11-03T12:37:25.386Z,15.72
2017-11-03T12:38:25.701Z,15.6
2017-11-03T12:39:25.695Z,15.57
2017-11-03T12:40:25.365Z,15.55
2017-11-03T12:41:25.685Z,15.65
2017-11-03T12:42:26.024Z,15.63
2017-11-03T12:43:25.990Z,15.59
2017-11-03T12:44:25.655Z,15.67
2017-11-03T12:45:25.652Z,15.73
2017-11-03T12:46:25.653Z,15.7
2017-11-03T12:47:25.634Z,15.57
2017-11-03T12:48:25.628Z,15.75
2017-11-03T12:49:25.626Z,15.72
2017-11-03T12:50:25.614Z,15.7
2017-11-03T12:51:25.932Z,15.63
2017-11-03T12:52:25.599Z,15.57
2017-11-03T12:53:25.588Z,15.67
2017-11-03T12:54:25.261Z,15.65
2017-11-03T12:55:25.253Z,15.76
2017-11-03T12:56:25.571Z,15.72